RYR85KM EGGW-LEMI
Flight info
| Callsign | RYR85KM |
|---|---|
| Flight time | 2h 37m |
| Altitude | 37000 |
| Route | RODNI N27 ICTAM Q63 CPT UN859 SOPIL DCT BALAN DCT LMG DCT PIMQO DCT AGN DCT ANETO N860 VLC L34 ALT |
| Aircraft | B38M/M-SDE1FGHILORVWXY/HB1 |
Departure
| Time | 2026-04-30 18:51 |
|---|---|
| Airport | London Luton Airport (EGGW) |
Arrival
| Time | 2026-04-30 21:28 |
|---|---|
| Airport | Region of Murcia International Airport (LEMI) |
| Time | Latitude | Longitude | Altitude | Speed | Heading |
|---|---|---|---|---|---|
| 2026-04-30 18:23 | 51.87991 | -0.37864 | 525 ft | 0 kts | 127° |
| 2026-04-30 18:41 | 51.87999 | -0.37884 | 525 ft | 4 kts | 117° |
| 2026-04-30 18:41 | 51.88013 | -0.37918 | 525 ft | 4 kts | 140° |
| 2026-04-30 18:41 | 51.88027 | -0.37917 | 525 ft | 4 kts | 215° |
| 2026-04-30 18:42 | 51.88044 | -0.37897 | 525 ft | 4 kts | 217° |
| 2026-04-30 18:42 | 51.88053 | -0.37886 | 525 ft | 0 kts | 217° |
| 2026-04-30 18:45 | 51.88043 | -0.37899 | 525 ft | 3 kts | 220° |
| 2026-04-30 18:45 | 51.88023 | -0.37927 | 525 ft | 5 kts | 219° |
| 2026-04-30 18:45 | 51.87990 | -0.37969 | 525 ft | 7 kts | 219° |
| 2026-04-30 18:46 | 51.87940 | -0.38009 | 525 ft | 9 kts | 193° |
| 2026-04-30 18:46 | 51.87872 | -0.38002 | 525 ft | 11 kts | 162° |
| 2026-04-30 18:46 | 51.87807 | -0.37922 | 525 ft | 13 kts | 125° |
| 2026-04-30 18:46 | 51.87764 | -0.37781 | 525 ft | 15 kts | 114° |
| 2026-04-30 18:47 | 51.87716 | -0.37618 | 524 ft | 17 kts | 115° |
| 2026-04-30 18:47 | 51.87641 | -0.37468 | 524 ft | 18 kts | 155° |
| 2026-04-30 18:47 | 51.87519 | -0.37495 | 524 ft | 18 kts | 229° |
| 2026-04-30 18:47 | 51.87479 | -0.37692 | 525 ft | 19 kts | 255° |
| 2026-04-30 18:48 | 51.87442 | -0.37901 | 525 ft | 18 kts | 254° |
| 2026-04-30 18:48 | 51.87408 | -0.38029 | 525 ft | 8 kts | 225° |
| 2026-04-30 18:48 | 51.87369 | -0.38064 | 525 ft | 5 kts | 205° |
| 2026-04-30 18:48 | 51.87353 | -0.38077 | 525 ft | 0 kts | 205° |
| 2026-04-30 18:49 | 51.87341 | -0.38086 | 525 ft | 6 kts | 205° |
| 2026-04-30 18:49 | 51.87275 | -0.38108 | 525 ft | 12 kts | 184° |
| 2026-04-30 18:49 | 51.87232 | -0.38201 | 526 ft | 12 kts | 258° |
| 2026-04-30 18:49 | 51.87226 | -0.38314 | 525 ft | 4 kts | 203° |
| 2026-04-30 18:50 | 51.87216 | -0.38306 | 525 ft | 1 kts | 129° |
| 2026-04-30 18:50 | 51.87214 | -0.38287 | 525 ft | 2 kts | 83° |
| 2026-04-30 18:50 | 51.87216 | -0.38272 | 525 ft | 0 kts | 77° |
| 2026-04-30 18:51 | 51.87225 | -0.38218 | 526 ft | 29 kts | 73° |
| 2026-04-30 18:51 | 51.87365 | -0.37415 | 525 ft | 115 kts | 74° |
| 2026-04-30 18:51 | 51.87638 | -0.35824 | 567 ft | 177 kts | 76° |
| 2026-04-30 18:51 | 51.88008 | -0.33794 | 1198 ft | 200 kts | 75° |
| 2026-04-30 18:52 | 51.88403 | -0.31551 | 2100 ft | 212 kts | 77° |
| 2026-04-30 18:52 | 51.88780 | -0.29181 | 2921 ft | 226 kts | 77° |
| 2026-04-30 18:52 | 51.89194 | -0.26647 | 3811 ft | 239 kts | 82° |
| 2026-04-30 18:52 | 51.89200 | -0.23991 | 4889 ft | 232 kts | 111° |
| 2026-04-30 18:53 | 51.88280 | -0.21920 | 6008 ft | 229 kts | 148° |
| 2026-04-30 18:53 | 51.86755 | -0.21196 | 7015 ft | 238 kts | 178° |
| 2026-04-30 18:53 | 51.85080 | -0.21752 | 7738 ft | 259 kts | 202° |
| 2026-04-30 18:53 | 51.83625 | -0.23636 | 8495 ft | 280 kts | 231° |
| 2026-04-30 18:54 | 51.82887 | -0.26644 | 9224 ft | 303 kts | 260° |
| 2026-04-30 18:54 | 51.82752 | -0.30073 | 10214 ft | 306 kts | 263° |
| 2026-04-30 18:54 | 51.82547 | -0.33476 | 11284 ft | 305 kts | 259° |
| 2026-04-30 18:54 | 51.82222 | -0.36860 | 12111 ft | 300 kts | 255° |
| 2026-04-30 18:55 | 51.81821 | -0.40138 | 11919 ft | 296 kts | 254° |
| 2026-04-30 18:55 | 51.80935 | -0.46617 | 13378 ft | 305 kts | 251° |
| 2026-04-30 18:55 | 51.80423 | -0.50000 | 13999 ft | 316 kts | 252° |
| 2026-04-30 18:56 | 51.79369 | -0.56944 | 15604 ft | 322 kts | 252° |
| 2026-04-30 18:56 | 51.78829 | -0.60474 | 16371 ft | 325 kts | 252° |
| 2026-04-30 18:56 | 51.78283 | -0.64038 | 17086 ft | 329 kts | 252° |
| 2026-04-30 18:57 | 51.77172 | -0.71269 | 18442 ft | 335 kts | 252° |
| 2026-04-30 18:57 | 51.76605 | -0.74947 | 19089 ft | 339 kts | 251° |
| 2026-04-30 18:57 | 51.75812 | -0.78495 | 19704 ft | 335 kts | 236° |
| 2026-04-30 18:58 | 51.72729 | -0.83991 | 20837 ft | 334 kts | 216° |
| 2026-04-30 18:58 | 51.71026 | -0.86691 | 20972 ft | 355 kts | 223° |
| 2026-04-30 18:58 | 51.69298 | -0.89641 | 21118 ft | 369 kts | 221° |
| 2026-04-30 18:59 | 51.65814 | -0.95375 | 21119 ft | 342 kts | 220° |
| 2026-04-30 19:00 | 51.61084 | -1.02980 | 21158 ft | 305 kts | 219° |
| 2026-04-30 19:00 | 51.59546 | -1.05435 | 21242 ft | 318 kts | 220° |
| 2026-04-30 19:00 | 51.56310 | -1.10598 | 22068 ft | 333 kts | 220° |
| 2026-04-30 19:01 | 51.52987 | -1.15887 | 23158 ft | 339 kts | 219° |
| 2026-04-30 19:01 | 51.51157 | -1.18195 | 23654 ft | 332 kts | 202° |
| 2026-04-30 19:02 | 51.46803 | -1.19712 | 24453 ft | 305 kts | 174° |
| 2026-04-30 19:02 | 51.43043 | -1.17926 | 24966 ft | 278 kts | 152° |
| 2026-04-30 19:03 | 51.39486 | -1.15137 | 25480 ft | 292 kts | 154° |
| 2026-04-30 19:03 | 51.35739 | -1.12291 | 26004 ft | 304 kts | 154° |
| 2026-04-30 19:04 | 51.31863 | -1.09373 | 26545 ft | 315 kts | 154° |
| 2026-04-30 19:04 | 51.27833 | -1.06345 | 27106 ft | 324 kts | 154° |
| 2026-04-30 19:05 | 51.23691 | -1.03285 | 27688 ft | 331 kts | 155° |
| 2026-04-30 19:05 | 51.19458 | -1.00201 | 28287 ft | 337 kts | 155° |
| 2026-04-30 19:06 | 51.15171 | -0.97081 | 28879 ft | 340 kts | 155° |
| 2026-04-30 19:06 | 51.13014 | -0.95513 | 29180 ft | 343 kts | 155° |
| 2026-04-30 19:06 | 51.09388 | -0.92881 | 29685 ft | 345 kts | 155° |
| 2026-04-30 19:07 | 51.05010 | -0.89710 | 30291 ft | 347 kts | 155° |
| 2026-04-30 19:07 | 51.02818 | -0.88124 | 30589 ft | 347 kts | 155° |
| 2026-04-30 19:08 | 50.98408 | -0.84940 | 31197 ft | 348 kts | 155° |
| 2026-04-30 19:08 | 50.94009 | -0.81770 | 31804 ft | 346 kts | 155° |
| 2026-04-30 19:08 | 50.91817 | -0.80193 | 32118 ft | 346 kts | 155° |
| 2026-04-30 19:09 | 50.87446 | -0.77053 | 32697 ft | 343 kts | 155° |
| 2026-04-30 19:09 | 50.85299 | -0.75431 | 32983 ft | 341 kts | 148° |
| 2026-04-30 19:09 | 50.83365 | -0.73268 | 33275 ft | 339 kts | 146° |
| 2026-04-30 19:10 | 50.79454 | -0.69221 | 33849 ft | 333 kts | 147° |
| 2026-04-30 19:10 | 50.75602 | -0.65303 | 34405 ft | 326 kts | 148° |
| 2026-04-30 19:11 | 50.73707 | -0.63383 | 34675 ft | 321 kts | 148° |
| 2026-04-30 19:11 | 50.69999 | -0.59637 | 35184 ft | 311 kts | 148° |
| 2026-04-30 19:11 | 50.68192 | -0.57814 | 35429 ft | 305 kts | 148° |
| 2026-04-30 19:12 | 50.66425 | -0.56034 | 35661 ft | 298 kts | 148° |
| 2026-04-30 19:12 | 50.64696 | -0.54293 | 35861 ft | 291 kts | 148° |
| 2026-04-30 19:12 | 50.63014 | -0.52600 | 36070 ft | 283 kts | 148° |
| 2026-04-30 19:13 | 50.59766 | -0.49368 | 36098 ft | 278 kts | 149° |
| 2026-04-30 19:13 | 50.56323 | -0.46278 | 35617 ft | 290 kts | 153° |
| 2026-04-30 19:13 | 50.54543 | -0.44893 | 35797 ft | 281 kts | 154° |
| 2026-04-30 19:14 | 50.52815 | -0.43577 | 35969 ft | 273 kts | 154° |
| 2026-04-30 19:14 | 50.51110 | -0.42247 | 35823 ft | 277 kts | 153° |
| 2026-04-30 19:14 | 50.49357 | -0.40848 | 35523 ft | 286 kts | 153° |
| 2026-04-30 19:14 | 50.47587 | -0.39390 | 35453 ft | 286 kts | 152° |
| 2026-04-30 19:15 | 50.45855 | -0.37946 | 35655 ft | 277 kts | 152° |
| 2026-04-30 19:15 | 50.42539 | -0.35027 | 35560 ft | 278 kts | 149° |
| 2026-04-30 19:15 | 50.40872 | -0.33391 | 35290 ft | 286 kts | 147° |
| 2026-04-30 19:16 | 50.39208 | -0.31681 | 35296 ft | 283 kts | 147° |
| 2026-04-30 19:16 | 50.37597 | -0.29995 | 35498 ft | 274 kts | 147° |
| 2026-04-30 19:16 | 50.34346 | -0.26896 | 35279 ft | 280 kts | 152° |
| 2026-04-30 19:17 | 50.32589 | -0.25476 | 35054 ft | 286 kts | 155° |
| 2026-04-30 19:17 | 50.28997 | -0.23174 | 35395 ft | 270 kts | 161° |
| 2026-04-30 19:17 | 50.27210 | -0.22221 | 35287 ft | 274 kts | 161° |
| 2026-04-30 19:18 | 50.24147 | -0.20543 | 34957 ft | 284 kts | 159° |
| 2026-04-30 19:18 | 50.21720 | -0.19109 | 35187 ft | 273 kts | 159° |
| 2026-04-30 19:18 | 50.19967 | -0.18049 | 35269 ft | 269 kts | 159° |
| 2026-04-30 19:19 | 50.18220 | -0.16998 | 35047 ft | 277 kts | 159° |
| 2026-04-30 19:19 | 50.16392 | -0.15923 | 34842 ft | 283 kts | 159° |
| 2026-04-30 19:19 | 50.12749 | -0.13924 | 35134 ft | 269 kts | 160° |
| 2026-04-30 19:20 | 50.10934 | -0.13028 | 34834 ft | 280 kts | 160° |
| 2026-04-30 19:20 | 50.09200 | -0.11615 | 34526 ft | 285 kts | 139° |
| 2026-04-30 19:20 | 50.06934 | -0.06561 | 34182 ft | 286 kts | 121° |
| 2026-04-30 19:21 | 50.05837 | -0.04051 | 34425 ft | 276 kts | 133° |
| 2026-04-30 19:21 | 50.03002 | -0.00228 | 34494 ft | 272 kts | 143° |
| 2026-04-30 19:22 | 49.99824 | 0.03005 | 34547 ft | 268 kts | 151° |
| 2026-04-30 19:22 | 49.94667 | 0.05993 | 34527 ft | 271 kts | 163° |
| 2026-04-30 19:23 | 49.89156 | 0.08199 | 34672 ft | 266 kts | 163° |
| 2026-04-30 19:24 | 49.85606 | 0.09567 | 34655 ft | 267 kts | 165° |
| 2026-04-30 19:24 | 49.83768 | 0.10230 | 34467 ft | 274 kts | 166° |
| 2026-04-30 19:24 | 49.80061 | 0.11231 | 34701 ft | 265 kts | 166° |
| 2026-04-30 19:25 | 49.74782 | 0.13627 | 33152 ft | 273 kts | 163° |
| 2026-04-30 19:26 | 49.71194 | 0.15101 | 32522 ft | 255 kts | 163° |
| 2026-04-30 19:26 | 49.67876 | 0.16393 | 31466 ft | 255 kts | 162° |
| 2026-04-30 19:26 | 49.66121 | 0.17147 | 30704 ft | 265 kts | 161° |
| 2026-04-30 19:27 | 49.62677 | 0.18589 | 30287 ft | 241 kts | 162° |
| 2026-04-30 19:27 | 49.59138 | 0.20082 | 28396 ft | 281 kts | 163° |
| 2026-04-30 19:28 | 49.57245 | 0.20853 | 27932 ft | 284 kts | 163° |
| 2026-04-30 19:28 | 49.53122 | 0.22478 | 24506 ft | 361 kts | 163° |
| 2026-04-30 19:29 | 49.48336 | 0.24387 | 24365 ft | 337 kts | 163° |
| 2026-04-30 19:29 | 49.46142 | 0.25264 | 24633 ft | 314 kts | 162° |
| 2026-04-30 19:30 | 49.40513 | 0.27511 | 25399 ft | 242 kts | 162° |
| 2026-04-30 19:30 | 49.37495 | 0.28722 | 25172 ft | 233 kts | 161° |
| 2026-04-30 19:31 | 49.34233 | 0.30081 | 25882 ft | 224 kts | 162° |
| 2026-04-30 19:31 | 49.32803 | 0.30636 | 26630 ft | 206 kts | 163° |
| 2026-04-30 19:31 | 49.29704 | 0.31810 | 26282 ft | 244 kts | 163° |
| 2026-04-30 19:32 | 49.28082 | 0.32469 | 26679 ft | 239 kts | 162° |
| 2026-04-30 19:32 | 49.26496 | 0.33148 | 26938 ft | 241 kts | 161° |
| 2026-04-30 19:32 | 49.24846 | 0.33860 | 27004 ft | 252 kts | 162° |
| 2026-04-30 19:32 | 49.23128 | 0.34579 | 27162 ft | 258 kts | 162° |
| 2026-04-30 19:33 | 49.21413 | 0.35330 | 27572 ft | 252 kts | 160° |
| 2026-04-30 19:33 | 49.19726 | 0.36079 | 27883 ft | 254 kts | 163° |
| 2026-04-30 19:33 | 49.17999 | 0.36723 | 28072 ft | 258 kts | 164° |
| 2026-04-30 19:33 | 49.16244 | 0.37361 | 28252 ft | 262 kts | 164° |
| 2026-04-30 19:34 | 49.14476 | 0.38129 | 28430 ft | 266 kts | 161° |
| 2026-04-30 19:34 | 49.12685 | 0.38946 | 28597 ft | 271 kts | 162° |
| 2026-04-30 19:34 | 49.08992 | 0.40552 | 28961 ft | 281 kts | 162° |
| 2026-04-30 19:35 | 49.07085 | 0.41364 | 29137 ft | 287 kts | 162° |
| 2026-04-30 19:35 | 49.05145 | 0.42181 | 29313 ft | 292 kts | 163° |
| 2026-04-30 19:35 | 49.03173 | 0.43006 | 29492 ft | 296 kts | 163° |
| 2026-04-30 19:35 | 49.01169 | 0.43844 | 29670 ft | 300 kts | 163° |
| 2026-04-30 19:36 | 48.99138 | 0.44692 | 29847 ft | 304 kts | 163° |
| 2026-04-30 19:36 | 48.97082 | 0.45549 | 30031 ft | 308 kts | 163° |
| 2026-04-30 19:36 | 48.92890 | 0.47294 | 30394 ft | 317 kts | 163° |
| 2026-04-30 19:37 | 48.90746 | 0.48185 | 30552 ft | 321 kts | 163° |
| 2026-04-30 19:37 | 48.88601 | 0.49076 | 30718 ft | 325 kts | 163° |
| 2026-04-30 19:37 | 48.86402 | 0.49988 | 30858 ft | 331 kts | 163° |
| 2026-04-30 19:37 | 48.84144 | 0.50924 | 30847 ft | 342 kts | 163° |
| 2026-04-30 19:38 | 48.79414 | 0.52876 | 30900 ft | 362 kts | 164° |
| 2026-04-30 19:38 | 48.74410 | 0.54839 | 30957 ft | 382 kts | 164° |
| 2026-04-30 19:39 | 48.71792 | 0.55869 | 30982 ft | 393 kts | 164° |
| 2026-04-30 19:39 | 48.69113 | 0.56920 | 31016 ft | 402 kts | 164° |
| 2026-04-30 19:39 | 48.66404 | 0.57984 | 31395 ft | 402 kts | 164° |
| 2026-04-30 19:39 | 48.63688 | 0.59048 | 31681 ft | 405 kts | 164° |
| 2026-04-30 19:40 | 48.60956 | 0.60117 | 31972 ft | 407 kts | 164° |
| 2026-04-30 19:40 | 48.58207 | 0.61192 | 32259 ft | 409 kts | 164° |
| 2026-04-30 19:40 | 48.55440 | 0.62273 | 32569 ft | 411 kts | 164° |
| 2026-04-30 19:40 | 48.52670 | 0.63361 | 32865 ft | 412 kts | 164° |
| 2026-04-30 19:41 | 48.49899 | 0.64493 | 33104 ft | 414 kts | 163° |
| 2026-04-30 19:41 | 48.47109 | 0.65630 | 33149 ft | 416 kts | 163° |
| 2026-04-30 19:41 | 48.41527 | 0.67895 | 33134 ft | 415 kts | 163° |
| 2026-04-30 19:42 | 48.35922 | 0.70162 | 33138 ft | 417 kts | 163° |
| 2026-04-30 19:42 | 48.30356 | 0.72409 | 33139 ft | 417 kts | 163° |
| 2026-04-30 19:43 | 48.24758 | 0.74652 | 33138 ft | 417 kts | 164° |
| 2026-04-30 19:44 | 48.16335 | 0.77970 | 33138 ft | 417 kts | 164° |
| 2026-04-30 19:44 | 48.10723 | 0.80177 | 33136 ft | 417 kts | 164° |
| 2026-04-30 19:45 | 48.05105 | 0.82380 | 33135 ft | 417 kts | 164° |
| 2026-04-30 19:45 | 47.99492 | 0.84577 | 33140 ft | 417 kts | 164° |
| 2026-04-30 19:46 | 47.93877 | 0.86769 | 33137 ft | 418 kts | 164° |
| 2026-04-30 19:46 | 47.88286 | 0.88948 | 33129 ft | 418 kts | 164° |
| 2026-04-30 19:47 | 47.82657 | 0.91136 | 33127 ft | 417 kts | 164° |
| 2026-04-30 19:47 | 47.77050 | 0.93309 | 33129 ft | 417 kts | 164° |
| 2026-04-30 19:48 | 47.71425 | 0.95484 | 33129 ft | 417 kts | 164° |
| 2026-04-30 19:48 | 47.65808 | 0.97651 | 33129 ft | 417 kts | 164° |
| 2026-04-30 19:49 | 47.60192 | 0.99814 | 33128 ft | 417 kts | 164° |
| 2026-04-30 19:49 | 47.51770 | 1.03047 | 33128 ft | 417 kts | 164° |
| 2026-04-30 19:50 | 47.46149 | 1.05200 | 33128 ft | 417 kts | 165° |
| 2026-04-30 19:50 | 47.40463 | 1.06311 | 33138 ft | 417 kts | 180° |
| 2026-04-30 19:51 | 47.34634 | 1.06232 | 33130 ft | 419 kts | 179° |
| 2026-04-30 19:51 | 47.28809 | 1.06111 | 33131 ft | 419 kts | 179° |
| 2026-04-30 19:52 | 47.22980 | 1.05976 | 33137 ft | 418 kts | 180° |
| 2026-04-30 19:52 | 47.17162 | 1.05839 | 33137 ft | 418 kts | 180° |
| 2026-04-30 19:53 | 47.11344 | 1.05704 | 33137 ft | 418 kts | 180° |
| 2026-04-30 19:53 | 47.05526 | 1.05568 | 33140 ft | 418 kts | 180° |
| 2026-04-30 19:54 | 47.00697 | 1.05399 | 33137 ft | 418 kts | 180° |
| 2026-04-30 19:54 | 46.94884 | 1.05147 | 33142 ft | 418 kts | 180° |
| 2026-04-30 19:55 | 46.88115 | 1.04862 | 33146 ft | 418 kts | 181° |
| 2026-04-30 19:55 | 46.83250 | 1.04657 | 33148 ft | 418 kts | 181° |
| 2026-04-30 19:56 | 46.77436 | 1.04412 | 33152 ft | 418 kts | 181° |
| 2026-04-30 19:56 | 46.71626 | 1.04169 | 33152 ft | 417 kts | 181° |
| 2026-04-30 19:57 | 46.65821 | 1.03926 | 33153 ft | 418 kts | 181° |
| 2026-04-30 19:57 | 46.60049 | 1.03685 | 33153 ft | 417 kts | 181° |
| 2026-04-30 19:58 | 46.54244 | 1.03444 | 33154 ft | 417 kts | 181° |
| 2026-04-30 19:58 | 46.48451 | 1.03334 | 33161 ft | 417 kts | 180° |
| 2026-04-30 19:59 | 46.42651 | 1.03271 | 33161 ft | 417 kts | 180° |
| 2026-04-30 20:00 | 46.33951 | 1.03168 | 33165 ft | 417 kts | 180° |
| 2026-04-30 20:00 | 46.28148 | 1.03100 | 33161 ft | 417 kts | 180° |
| 2026-04-30 20:01 | 46.19454 | 1.02998 | 33178 ft | 417 kts | 180° |
| 2026-04-30 20:01 | 46.13658 | 1.02930 | 33169 ft | 416 kts | 180° |
| 2026-04-30 20:02 | 46.04969 | 1.02828 | 33172 ft | 416 kts | 180° |
| 2026-04-30 20:03 | 45.96284 | 1.02726 | 33181 ft | 416 kts | 180° |
| 2026-04-30 20:03 | 45.90478 | 1.02659 | 33183 ft | 418 kts | 181° |
| 2026-04-30 20:04 | 45.84699 | 1.02593 | 33181 ft | 417 kts | 181° |
| 2026-04-30 20:05 | 45.76066 | 1.03988 | 33179 ft | 419 kts | 171° |
| 2026-04-30 20:05 | 45.67448 | 1.06201 | 33181 ft | 419 kts | 171° |
| 2026-04-30 20:06 | 45.61699 | 1.07676 | 33176 ft | 420 kts | 171° |
| 2026-04-30 20:06 | 45.55938 | 1.09152 | 33174 ft | 421 kts | 171° |
| 2026-04-30 20:07 | 45.50180 | 1.10623 | 33170 ft | 420 kts | 171° |
| 2026-04-30 20:08 | 45.41534 | 1.12826 | 33165 ft | 421 kts | 171° |
| 2026-04-30 20:08 | 45.35762 | 1.14294 | 33174 ft | 421 kts | 171° |
| 2026-04-30 20:09 | 45.29986 | 1.15760 | 33161 ft | 421 kts | 172° |
| 2026-04-30 20:09 | 45.21320 | 1.17953 | 33160 ft | 422 kts | 172° |
| 2026-04-30 20:10 | 45.15558 | 1.19004 | 33136 ft | 417 kts | 187° |
| 2026-04-30 20:10 | 45.12701 | 1.18380 | 33162 ft | 416 kts | 191° |
| 2026-04-30 20:11 | 45.04124 | 1.16279 | 33162 ft | 417 kts | 192° |
| 2026-04-30 20:11 | 44.98417 | 1.14821 | 33164 ft | 417 kts | 193° |
| 2026-04-30 20:12 | 44.89829 | 1.12625 | 33168 ft | 417 kts | 193° |
| 2026-04-30 20:13 | 44.84115 | 1.11169 | 33159 ft | 418 kts | 193° |
| 2026-04-30 20:13 | 44.78395 | 1.09713 | 33157 ft | 417 kts | 193° |
| 2026-04-30 20:14 | 44.72688 | 1.08263 | 33153 ft | 417 kts | 193° |
| 2026-04-30 20:14 | 44.66973 | 1.06814 | 33155 ft | 417 kts | 193° |
| 2026-04-30 20:15 | 44.61299 | 1.05380 | 33170 ft | 417 kts | 194° |
| 2026-04-30 20:15 | 44.55589 | 1.03938 | 33151 ft | 417 kts | 194° |
| 2026-04-30 20:16 | 44.49871 | 1.02497 | 33151 ft | 417 kts | 194° |
| 2026-04-30 20:16 | 44.44148 | 1.01058 | 33151 ft | 417 kts | 194° |
| 2026-04-30 20:17 | 44.38432 | 0.99623 | 33149 ft | 417 kts | 194° |
| 2026-04-30 20:17 | 44.32719 | 0.98192 | 33162 ft | 417 kts | 194° |
| 2026-04-30 20:18 | 44.26999 | 0.96762 | 33157 ft | 417 kts | 194° |
| 2026-04-30 20:18 | 44.21290 | 0.95338 | 33151 ft | 417 kts | 194° |
| 2026-04-30 20:19 | 44.15601 | 0.93922 | 33164 ft | 417 kts | 194° |
| 2026-04-30 20:19 | 44.09883 | 0.92501 | 33153 ft | 417 kts | 194° |
| 2026-04-30 20:20 | 44.04173 | 0.91084 | 33155 ft | 417 kts | 194° |
| 2026-04-30 20:20 | 43.98466 | 0.89672 | 33154 ft | 416 kts | 194° |
| 2026-04-30 20:21 | 43.92750 | 0.88258 | 33155 ft | 418 kts | 195° |
| 2026-04-30 20:21 | 43.87041 | 0.86790 | 33159 ft | 417 kts | 197° |
| 2026-04-30 20:22 | 43.81344 | 0.85258 | 33174 ft | 417 kts | 196° |
| 2026-04-30 20:22 | 43.75658 | 0.83738 | 33166 ft | 417 kts | 196° |
| 2026-04-30 20:23 | 43.69958 | 0.82218 | 33173 ft | 417 kts | 196° |
| 2026-04-30 20:23 | 43.64261 | 0.80701 | 33168 ft | 417 kts | 196° |
| 2026-04-30 20:24 | 43.58573 | 0.79190 | 33154 ft | 417 kts | 196° |
| 2026-04-30 20:24 | 43.52872 | 0.77678 | 33166 ft | 417 kts | 196° |
| 2026-04-30 20:25 | 43.44365 | 0.75428 | 33159 ft | 416 kts | 196° |
| 2026-04-30 20:26 | 43.35836 | 0.73178 | 33170 ft | 416 kts | 197° |
| 2026-04-30 20:26 | 43.27297 | 0.70932 | 33173 ft | 416 kts | 196° |
| 2026-04-30 20:27 | 43.15920 | 0.67950 | 33179 ft | 416 kts | 196° |
| 2026-04-30 20:28 | 43.04538 | 0.64977 | 33158 ft | 416 kts | 196° |
| 2026-04-30 20:30 | 42.90328 | 0.61282 | 33152 ft | 415 kts | 196° |
| 2026-04-30 20:31 | 42.73305 | 0.56876 | 33157 ft | 416 kts | 196° |
| 2026-04-30 20:32 | 42.59104 | 0.53221 | 33140 ft | 415 kts | 196° |
| 2026-04-30 20:33 | 42.50593 | 0.51038 | 33139 ft | 416 kts | 196° |
| 2026-04-30 20:34 | 42.42079 | 0.48860 | 33135 ft | 415 kts | 196° |
| 2026-04-30 20:35 | 42.33577 | 0.46690 | 33130 ft | 415 kts | 196° |
| 2026-04-30 20:35 | 42.25076 | 0.44526 | 33112 ft | 414 kts | 196° |
| 2026-04-30 20:36 | 42.19404 | 0.43084 | 33109 ft | 415 kts | 196° |
| 2026-04-30 20:37 | 42.10892 | 0.40926 | 33109 ft | 415 kts | 196° |
| 2026-04-30 20:37 | 42.05254 | 0.39500 | 33107 ft | 415 kts | 196° |
| 2026-04-30 20:38 | 41.99592 | 0.38070 | 33100 ft | 415 kts | 195° |
| 2026-04-30 20:38 | 41.93912 | 0.36639 | 33103 ft | 414 kts | 195° |
| 2026-04-30 20:39 | 41.85427 | 0.34507 | 33105 ft | 414 kts | 195° |
| 2026-04-30 20:40 | 41.76942 | 0.32380 | 33100 ft | 413 kts | 195° |
| 2026-04-30 20:40 | 41.71283 | 0.30965 | 33102 ft | 413 kts | 195° |
| 2026-04-30 20:41 | 41.62805 | 0.28849 | 33098 ft | 413 kts | 195° |
| 2026-04-30 20:41 | 41.57154 | 0.27443 | 33111 ft | 413 kts | 195° |
| 2026-04-30 20:42 | 41.51496 | 0.26037 | 33135 ft | 413 kts | 195° |
| 2026-04-30 20:43 | 41.43061 | 0.23945 | 33128 ft | 412 kts | 195° |
| 2026-04-30 20:43 | 41.37421 | 0.22549 | 33119 ft | 412 kts | 195° |
| 2026-04-30 20:44 | 41.29922 | 0.20698 | 33131 ft | 411 kts | 195° |
| 2026-04-30 20:45 | 41.18659 | 0.17925 | 33129 ft | 411 kts | 195° |
| 2026-04-30 20:45 | 41.13050 | 0.16512 | 33132 ft | 408 kts | 199° |
| 2026-04-30 20:46 | 41.02258 | 0.12088 | 33135 ft | 406 kts | 201° |
| 2026-04-30 20:47 | 40.94144 | 0.08887 | 33138 ft | 405 kts | 200° |
| 2026-04-30 20:48 | 40.86053 | 0.05686 | 33136 ft | 404 kts | 201° |
| 2026-04-30 20:48 | 40.80675 | 0.03530 | 33133 ft | 404 kts | 201° |
| 2026-04-30 20:49 | 40.75305 | 0.01381 | 33132 ft | 403 kts | 200° |
| 2026-04-30 20:50 | 40.67251 | -0.01834 | 33140 ft | 403 kts | 199° |
| 2026-04-30 20:50 | 40.61886 | -0.03972 | 33132 ft | 403 kts | 199° |
| 2026-04-30 20:51 | 40.56517 | -0.06108 | 33139 ft | 403 kts | 199° |
| 2026-04-30 20:51 | 40.48473 | -0.09301 | 33137 ft | 403 kts | 199° |
| 2026-04-30 20:52 | 40.43144 | -0.11412 | 33136 ft | 403 kts | 199° |
| 2026-04-30 20:53 | 40.35094 | -0.14595 | 33142 ft | 402 kts | 199° |
| 2026-04-30 20:53 | 40.29735 | -0.16709 | 33140 ft | 402 kts | 199° |
| 2026-04-30 20:54 | 40.21706 | -0.19870 | 33136 ft | 402 kts | 199° |
| 2026-04-30 20:55 | 40.13660 | -0.23028 | 33136 ft | 402 kts | 199° |
| 2026-04-30 20:55 | 40.08306 | -0.25127 | 33135 ft | 402 kts | 199° |
| 2026-04-30 20:56 | 40.00270 | -0.28269 | 33130 ft | 401 kts | 199° |
| 2026-04-30 20:57 | 39.92314 | -0.31371 | 33126 ft | 393 kts | 199° |
| 2026-04-30 20:57 | 39.87094 | -0.33403 | 32696 ft | 389 kts | 199° |
| 2026-04-30 20:58 | 39.81853 | -0.35440 | 31296 ft | 395 kts | 199° |
| 2026-04-30 20:58 | 39.79242 | -0.36453 | 30587 ft | 398 kts | 199° |
| 2026-04-30 20:58 | 39.76586 | -0.37485 | 29856 ft | 400 kts | 199° |
| 2026-04-30 20:58 | 39.73913 | -0.38521 | 29133 ft | 402 kts | 198° |
| 2026-04-30 20:59 | 39.68559 | -0.40594 | 28225 ft | 403 kts | 198° |
| 2026-04-30 20:59 | 39.65854 | -0.41640 | 28112 ft | 408 kts | 198° |
| 2026-04-30 21:00 | 39.54853 | -0.45885 | 28129 ft | 413 kts | 198° |
| 2026-04-30 21:01 | 39.46484 | -0.48436 | 28131 ft | 416 kts | 185° |
| 2026-04-30 21:02 | 39.37806 | -0.49085 | 28128 ft | 417 kts | 186° |
| 2026-04-30 21:02 | 39.32005 | -0.49507 | 28126 ft | 417 kts | 186° |
| 2026-04-30 21:03 | 39.26209 | -0.49927 | 28127 ft | 417 kts | 186° |
| 2026-04-30 21:03 | 39.20417 | -0.50345 | 28129 ft | 417 kts | 186° |
| 2026-04-30 21:04 | 39.14628 | -0.50763 | 28128 ft | 416 kts | 186° |
| 2026-04-30 21:04 | 39.05941 | -0.51388 | 28128 ft | 417 kts | 186° |
| 2026-04-30 21:05 | 39.00152 | -0.51804 | 28119 ft | 417 kts | 186° |
| 2026-04-30 21:05 | 38.94364 | -0.52219 | 28120 ft | 417 kts | 186° |
| 2026-04-30 21:06 | 38.91427 | -0.52429 | 28121 ft | 428 kts | 186° |
| 2026-04-30 21:06 | 38.88407 | -0.52645 | 28113 ft | 440 kts | 186° |
| 2026-04-30 21:06 | 38.85391 | -0.52860 | 27756 ft | 429 kts | 186° |
| 2026-04-30 21:06 | 38.82434 | -0.53071 | 27350 ft | 420 kts | 186° |
| 2026-04-30 21:07 | 38.79577 | -0.53275 | 26992 ft | 412 kts | 186° |
| 2026-04-30 21:07 | 38.76744 | -0.53477 | 26596 ft | 404 kts | 186° |
| 2026-04-30 21:07 | 38.73949 | -0.53676 | 26036 ft | 402 kts | 186° |
| 2026-04-30 21:07 | 38.71152 | -0.53876 | 25310 ft | 404 kts | 186° |
| 2026-04-30 21:08 | 38.68350 | -0.54075 | 24716 ft | 403 kts | 186° |
| 2026-04-30 21:08 | 38.65559 | -0.54274 | 24180 ft | 399 kts | 185° |
| 2026-04-30 21:08 | 38.62791 | -0.54470 | 23634 ft | 397 kts | 185° |
| 2026-04-30 21:08 | 38.60039 | -0.54665 | 23112 ft | 394 kts | 185° |
| 2026-04-30 21:09 | 38.57498 | -0.54845 | 22646 ft | 391 kts | 185° |
| 2026-04-30 21:09 | 38.54799 | -0.55037 | 22003 ft | 385 kts | 185° |
| 2026-04-30 21:09 | 38.52146 | -0.55225 | 21214 ft | 379 kts | 185° |
| 2026-04-30 21:09 | 38.49529 | -0.55410 | 20460 ft | 373 kts | 185° |
| 2026-04-30 21:10 | 38.46959 | -0.55591 | 19747 ft | 366 kts | 185° |
| 2026-04-30 21:10 | 38.44445 | -0.55769 | 19095 ft | 359 kts | 185° |
| 2026-04-30 21:10 | 38.41978 | -0.55944 | 18483 ft | 351 kts | 185° |
| 2026-04-30 21:10 | 38.39578 | -0.56113 | 17948 ft | 341 kts | 185° |
| 2026-04-30 21:11 | 38.37242 | -0.56278 | 17456 ft | 332 kts | 185° |
| 2026-04-30 21:11 | 38.34966 | -0.56439 | 16946 ft | 324 kts | 185° |
| 2026-04-30 21:11 | 38.32728 | -0.56596 | 16299 ft | 320 kts | 185° |
| 2026-04-30 21:11 | 38.30515 | -0.56752 | 15655 ft | 317 kts | 185° |
| 2026-04-30 21:12 | 38.28320 | -0.56906 | 15018 ft | 315 kts | 185° |
| 2026-04-30 21:12 | 38.26153 | -0.57111 | 14367 ft | 310 kts | 192° |
| 2026-04-30 21:12 | 38.24177 | -0.58095 | 13773 ft | 304 kts | 214° |
| 2026-04-30 21:12 | 38.22698 | -0.59991 | 13107 ft | 303 kts | 237° |
| 2026-04-30 21:13 | 38.21950 | -0.62477 | 12461 ft | 304 kts | 259° |
| 2026-04-30 21:13 | 38.22019 | -0.65153 | 11817 ft | 306 kts | 281° |
| 2026-04-30 21:13 | 38.22869 | -0.67617 | 11186 ft | 307 kts | 303° |
| 2026-04-30 21:13 | 38.24358 | -0.69566 | 10547 ft | 309 kts | 323° |
| 2026-04-30 21:14 | 38.26276 | -0.70754 | 9939 ft | 308 kts | 344° |
| 2026-04-30 21:14 | 38.28391 | -0.71030 | 9353 ft | 306 kts | 4° |
| 2026-04-30 21:14 | 38.30499 | -0.70665 | 9029 ft | 303 kts | 6° |
| 2026-04-30 21:14 | 38.32596 | -0.70393 | 8679 ft | 301 kts | 5° |
| 2026-04-30 21:15 | 38.34659 | -0.70026 | 8330 ft | 300 kts | 19° |
| 2026-04-30 21:15 | 38.36400 | -0.68639 | 8000 ft | 296 kts | 45° |
| 2026-04-30 21:15 | 38.37857 | -0.66845 | 7590 ft | 296 kts | 33° |
| 2026-04-30 21:15 | 38.39769 | -0.66039 | 7396 ft | 290 kts | 1° |
| 2026-04-30 21:16 | 38.41715 | -0.66637 | 7314 ft | 292 kts | 329° |
| 2026-04-30 21:16 | 38.43138 | -0.68445 | 7233 ft | 292 kts | 298° |
| 2026-04-30 21:16 | 38.43613 | -0.70922 | 7150 ft | 291 kts | 267° |
| 2026-04-30 21:16 | 38.43342 | -0.73486 | 7096 ft | 293 kts | 261° |
| 2026-04-30 21:17 | 38.42890 | -0.76020 | 7015 ft | 292 kts | 249° |
| 2026-04-30 21:17 | 38.41768 | -0.78145 | 6922 ft | 290 kts | 219° |
| 2026-04-30 21:17 | 38.39980 | -0.79250 | 6857 ft | 289 kts | 191° |
| 2026-04-30 21:17 | 38.37984 | -0.79298 | 6784 ft | 288 kts | 172° |
| 2026-04-30 21:18 | 38.35984 | -0.78983 | 6715 ft | 289 kts | 173° |
| 2026-04-30 21:18 | 38.33988 | -0.78693 | 6650 ft | 289 kts | 173° |
| 2026-04-30 21:18 | 38.31989 | -0.78411 | 6567 ft | 289 kts | 173° |
| 2026-04-30 21:18 | 38.30000 | -0.78135 | 6492 ft | 288 kts | 173° |
| 2026-04-30 21:19 | 38.28004 | -0.77860 | 6415 ft | 288 kts | 173° |
| 2026-04-30 21:19 | 38.26016 | -0.77588 | 6344 ft | 288 kts | 173° |
| 2026-04-30 21:19 | 38.24025 | -0.77317 | 6270 ft | 288 kts | 173° |
| 2026-04-30 21:19 | 38.22039 | -0.77045 | 6195 ft | 287 kts | 173° |
| 2026-04-30 21:20 | 38.20056 | -0.76775 | 6121 ft | 286 kts | 173° |
| 2026-04-30 21:20 | 38.18076 | -0.76505 | 6046 ft | 286 kts | 173° |
| 2026-04-30 21:20 | 38.16099 | -0.76236 | 5974 ft | 285 kts | 173° |
| 2026-04-30 21:20 | 38.14127 | -0.75968 | 5897 ft | 284 kts | 173° |
| 2026-04-30 21:21 | 38.12161 | -0.75704 | 5833 ft | 284 kts | 174° |
| 2026-04-30 21:21 | 38.10205 | -0.75988 | 5726 ft | 285 kts | 200° |
| 2026-04-30 21:21 | 38.07182 | -0.78992 | 5507 ft | 265 kts | 222° |
| 2026-04-30 21:22 | 38.05859 | -0.80551 | 5407 ft | 255 kts | 222° |
| 2026-04-30 21:22 | 38.02127 | -0.84981 | 5280 ft | 243 kts | 223° |
| 2026-04-30 21:23 | 38.00899 | -0.86443 | 5182 ft | 242 kts | 223° |
| 2026-04-30 21:23 | 37.99669 | -0.87906 | 5050 ft | 242 kts | 223° |
| 2026-04-30 21:23 | 37.97234 | -0.90801 | 4773 ft | 236 kts | 223° |
| 2026-04-30 21:24 | 37.96052 | -0.92203 | 4613 ft | 229 kts | 223° |
| 2026-04-30 21:24 | 37.94931 | -0.93617 | 4392 ft | 226 kts | 225° |
| 2026-04-30 21:24 | 37.93830 | -0.95049 | 4073 ft | 228 kts | 225° |
| 2026-04-30 21:24 | 37.92718 | -0.96488 | 3774 ft | 228 kts | 225° |
| 2026-04-30 21:25 | 37.90557 | -0.99251 | 3206 ft | 215 kts | 225° |
| 2026-04-30 21:25 | 37.89524 | -1.00584 | 2923 ft | 210 kts | 226° |
| 2026-04-30 21:25 | 37.88519 | -1.01882 | 2652 ft | 202 kts | 226° |
| 2026-04-30 21:26 | 37.86638 | -1.04313 | 2155 ft | 186 kts | 226° |
| 2026-04-30 21:26 | 37.85766 | -1.05440 | 1936 ft | 170 kts | 226° |
| 2026-04-30 21:27 | 37.84215 | -1.07443 | 1525 ft | 155 kts | 225° |
| 2026-04-30 21:27 | 37.83489 | -1.08381 | 1335 ft | 145 kts | 226° |
| 2026-04-30 21:27 | 37.82792 | -1.09280 | 1119 ft | 143 kts | 224° |
| 2026-04-30 21:28 | 37.81262 | -1.11149 | 779 ft | 162 kts | 221° |
| 2026-04-30 21:28 | 37.80505 | -1.12231 | 666 ft | 156 kts | 229° |
| 2026-04-30 21:28 | 37.79618 | -1.13348 | 652 ft | 2 kts | 234° |